createdAt,value
2018-01-01T00:00:12.321Z,65.00
2018-01-01T00:01:17.272Z,65.00
2018-01-01T00:02:22.075Z,65.00
2018-01-01T00:03:27.259Z,65.00
2018-01-01T00:04:32.210Z,65.00
2018-01-01T00:05:37.005Z,65.00
2018-01-01T00:06:41.889Z,65.00
2018-01-01T00:07:46.771Z,65.00
2018-01-01T00:08:51.703Z,65.00
2018-01-01T00:09:56.536Z,65.00
2018-01-01T00:11:01.507Z,65.60
2018-01-01T00:12:06.309Z,65.00
2018-01-01T00:13:11.123Z,65.00
2018-01-01T00:14:15.857Z,65.00
2018-01-01T00:15:20.699Z,64.90
2018-01-01T00:16:25.620Z,64.90
2018-01-01T00:17:30.675Z,65.00
2018-01-01T00:18:35.651Z,64.90
2018-01-01T00:19:40.738Z,64.90
2018-01-01T00:20:45.790Z,64.80
2018-01-01T00:21:50.869Z,64.80
2018-01-01T00:22:55.841Z,64.80
2018-01-01T00:24:00.899Z,64.80
2018-01-01T00:25:05.917Z,64.80
2018-01-01T00:26:10.951Z,64.80
2018-01-01T00:27:15.897Z,64.80
2018-01-01T00:28:20.945Z,64.80
2018-01-01T00:29:25.995Z,64.80
2018-01-01T00:30:31.082Z,64.80
2018-01-01T00:31:36.119Z,64.80
2018-01-01T00:32:41.239Z,64.80
2018-01-01T00:33:46.372Z,64.80
2018-01-01T00:34:51.324Z,64.80
2018-01-01T00:35:56.124Z,64.80
2018-01-01T00:37:01.069Z,64.80
2018-01-01T00:38:05.961Z,64.80
2018-01-01T00:39:10.709Z,64.80
2018-01-01T00:40:15.675Z,64.80
2018-01-01T00:41:20.592Z,64.80
2018-01-01T00:42:25.473Z,64.90
2018-01-01T00:43:30.180Z,64.80
2018-01-01T00:44:35.020Z,64.70
2018-01-01T00:45:39.918Z,64.80
2018-01-01T00:46:44.703Z,64.80
2018-01-01T00:47:49.611Z,64.80
2018-01-01T00:48:54.344Z,64.80
2018-01-01T00:49:59.269Z,64.90
2018-01-01T00:51:04.772Z,64.80
2018-01-01T00:52:09.472Z,64.80
2018-01-01T00:53:14.391Z,64.80
2018-01-01T00:54:19.435Z,64.80
2018-01-01T00:55:24.397Z,64.80
2018-01-01T00:56:29.310Z,64.80
2018-01-01T00:57:34.273Z,64.90
2018-01-01T00:58:39.216Z,64.80
2018-01-01T00:59:44.139Z,64.80
2018-01-01T01:00:49.027Z,64.80
2018-01-01T01:01:53.869Z,64.70
2018-01-01T01:02:58.827Z,64.80
2018-01-01T01:04:03.740Z,64.80
2018-01-01T01:05:08.678Z,64.70
2018-01-01T01:06:13.478Z,64.70
2018-01-01T01:07:18.403Z,64.70
2018-01-01T01:08:23.295Z,64.80
2018-01-01T01:09:28.254Z,64.70
2018-01-01T01:10:33.177Z,64.70
2018-01-01T01:11:38.140Z,64.70
2018-01-01T01:12:42.965Z,64.70
2018-01-01T01:13:47.790Z,64.70
2018-01-01T01:14:52.795Z,64.70
2018-01-01T01:15:57.568Z,64.70
2018-01-01T01:17:02.546Z,64.70
2018-01-01T01:18:07.307Z,64.80
2018-01-01T01:19:12.180Z,64.80
2018-01-01T01:20:17.097Z,64.90
2018-01-01T01:21:21.976Z,64.80
2018-01-01T01:22:26.891Z,64.90
2018-01-01T01:23:31.843Z,64.90
2018-01-01T01:24:36.751Z,64.90
2018-01-01T01:25:41.658Z,64.90
2018-01-01T01:26:46.486Z,64.90
2018-01-01T01:27:51.221Z,64.90
2018-01-01T01:28:56.030Z,64.90
2018-01-01T01:30:00.982Z,64.90
2018-01-01T01:31:05.947Z,64.80
2018-01-01T01:32:10.769Z,64.80
2018-01-01T01:33:15.870Z,64.90
2018-01-01T01:34:20.910Z,64.90
2018-01-01T01:35:25.890Z,64.80
2018-01-01T01:36:31.051Z,64.80
2018-01-01T01:37:35.940Z,64.90
2018-01-01T01:38:40.847Z,64.90
2018-01-01T01:39:45.774Z,64.80
2018-01-01T01:40:50.636Z,64.80
2018-01-01T01:41:55.469Z,64.70
2018-01-01T01:43:00.431Z,64.70
2018-01-01T01:44:06.601Z,64.70
2018-01-01T01:45:11.603Z,64.60
2018-01-01T01:46:16.528Z,64.60
2018-01-01T01:47:21.420Z,64.60
2018-01-01T01:48:26.333Z,64.60
2018-01-01T01:49:31.347Z,64.60
2018-01-01T01:50:36.286Z,64.60
2018-01-01T01:51:41.187Z,64.60
2018-01-01T01:52:46.264Z,64.50
2018-01-01T01:53:51.605Z,64.50
2018-01-01T01:54:56.652Z,64.50
2018-01-01T01:56:01.702Z,64.50
2018-01-01T01:57:06.728Z,64.50
2018-01-01T01:58:11.933Z,64.50
2018-01-01T01:59:16.877Z,64.50
2018-01-01T02:00:21.779Z,64.50
2018-01-01T02:01:26.696Z,64.50
2018-01-01T02:02:31.636Z,64.50
2018-01-01T02:03:36.371Z,64.40
2018-01-01T02:04:41.169Z,64.40
2018-01-01T02:05:45.916Z,64.40
2018-01-01T02:06:50.681Z,64.40
2018-01-01T02:07:55.506Z,64.40
2018-01-01T02:09:00.295Z,64.40
2018-01-01T02:10:05.088Z,64.50
2018-01-01T02:11:10.069Z,64.50
2018-01-01T02:12:14.913Z,64.50
2018-01-01T02:13:19.716Z,64.50
2018-01-01T02:14:25.242Z,64.50
2018-01-01T02:15:30.052Z,64.60
2018-01-01T02:16:35.114Z,64.60
2018-01-01T02:17:39.895Z,64.60
2018-01-01T02:18:44.818Z,64.60
2018-01-01T02:19:49.584Z,64.60
2018-01-01T02:20:54.340Z,64.50
2018-01-01T02:21:59.291Z,64.50
2018-01-01T02:23:04.294Z,64.50
2018-01-01T02:24:09.043Z,64.50
2018-01-01T02:25:13.909Z,64.50
2018-01-01T02:26:18.782Z,64.50
2018-01-01T02:27:23.669Z,64.50
2018-01-01T02:28:28.457Z,64.50
2018-01-01T02:29:33.251Z,64.50
2018-01-01T02:30:38.315Z,64.50
2018-01-01T02:31:43.224Z,64.50
2018-01-01T02:32:48.224Z,64.50
2018-01-01T02:33:53.112Z,64.50
2018-01-01T02:34:57.813Z,64.50
2018-01-01T02:36:02.782Z,64.50
2018-01-01T02:37:07.700Z,64.30
2018-01-01T02:38:12.521Z,64.50
2018-01-01T02:39:17.393Z,64.40
2018-01-01T02:40:22.296Z,64.40
2018-01-01T02:41:27.209Z,64.40
2018-01-01T02:42:31.992Z,64.40
2018-01-01T02:43:36.754Z,64.30
2018-01-01T02:44:41.752Z,64.40
2018-01-01T02:45:46.728Z,64.40
2018-01-01T02:46:53.217Z,64.40
2018-01-01T02:47:58.130Z,64.40
2018-01-01T02:49:06.051Z,64.30
2018-01-01T02:50:10.870Z,64.30
2018-01-01T02:51:15.763Z,64.30
2018-01-01T02:52:20.622Z,64.30
2018-01-01T02:53:25.431Z,64.40
2018-01-01T02:54:30.312Z,64.30
2018-01-01T02:55:35.237Z,64.30
2018-01-01T02:56:40.200Z,64.30
2018-01-01T02:57:45.149Z,64.30
2018-01-01T02:58:50.101Z,64.30
2018-01-01T02:59:54.966Z,64.20
2018-01-01T03:00:59.783Z,64.20
2018-01-01T03:02:04.694Z,64.20
2018-01-01T03:03:09.467Z,64.20
2018-01-01T03:04:14.388Z,64.20
2018-01-01T03:05:19.162Z,64.20
2018-01-01T03:06:23.990Z,64.30
2018-01-01T03:07:28.908Z,64.20
2018-01-01T03:08:33.855Z,64.20
2018-01-01T03:09:39.919Z,64.20
2018-01-01T03:10:44.623Z,64.20
2018-01-01T03:11:49.433Z,64.20
2018-01-01T03:12:54.478Z,64.20
2018-01-01T03:13:59.380Z,64.10
2018-01-01T03:15:04.171Z,64.10
2018-01-01T03:16:08.941Z,64.10
2018-01-01T03:17:13.796Z,64.10
2018-01-01T03:18:18.705Z,64.10
2018-01-01T03:19:23.447Z,64.10
2018-01-01T03:20:28.445Z,64.10
2018-01-01T03:21:33.295Z,64.10
2018-01-01T03:22:38.106Z,64.10
2018-01-01T03:23:42.920Z,64.10
2018-01-01T03:24:47.701Z,64.10
2018-01-01T03:25:52.463Z,64.00
2018-01-01T03:26:57.267Z,64.80
2018-01-01T03:28:02.182Z,64.00
2018-01-01T03:29:06.891Z,64.00
2018-01-01T03:30:11.722Z,64.00
2018-01-01T03:31:16.641Z,64.00
2018-01-01T03:32:21.581Z,64.00
2018-01-01T03:33:26.533Z,64.10
2018-01-01T03:34:31.431Z,64.00
2018-01-01T03:35:36.361Z,64.00
2018-01-01T03:36:41.273Z,64.10
2018-01-01T03:37:46.177Z,64.10
2018-01-01T03:38:51.150Z,64.00
2018-01-01T03:39:55.919Z,64.00
2018-01-01T03:41:00.673Z,64.00
2018-01-01T03:42:05.518Z,64.00
2018-01-01T03:43:10.551Z,64.00
2018-01-01T03:44:15.348Z,64.00
2018-01-01T03:45:20.241Z,64.00
2018-01-01T03:46:25.149Z,64.00
2018-01-01T03:47:29.923Z,64.00
2018-01-01T03:48:34.739Z,64.00
2018-01-01T03:49:39.646Z,63.90
2018-01-01T03:50:44.454Z,64.00
2018-01-01T03:51:49.283Z,64.00
2018-01-01T03:52:54.196Z,64.00
2018-01-01T03:53:59.019Z,63.90
2018-01-01T03:55:03.969Z,63.90
2018-01-01T03:56:08.865Z,63.90
2018-01-01T03:57:13.940Z,63.80
2018-01-01T03:58:18.781Z,63.80
2018-01-01T03:59:23.659Z,63.80
2018-01-01T04:00:28.446Z,63.90
2018-01-01T04:01:33.358Z,63.80
2018-01-01T04:02:38.267Z,63.90
2018-01-01T04:03:43.036Z,63.80
2018-01-01T04:04:47.821Z,63.80
2018-01-01T04:05:52.729Z,63.80
2018-01-01T04:06:57.583Z,63.80
2018-01-01T04:08:02.354Z,63.80
2018-01-01T04:09:07.061Z,63.80
2018-01-01T04:10:11.937Z,63.80
2018-01-01T04:11:16.697Z,63.90
2018-01-01T04:12:21.569Z,63.80
2018-01-01T04:13:26.329Z,63.80
2018-01-01T04:14:31.120Z,63.80
2018-01-01T04:15:36.066Z,63.80
2018-01-01T04:16:40.964Z,63.80
2018-01-01T04:17:45.729Z,63.80
2018-01-01T04:18:50.477Z,63.80
2018-01-01T04:19:55.237Z,63.80
2018-01-01T04:21:00.052Z,63.70
2018-01-01T04:22:04.801Z,63.70
2018-01-01T04:23:09.687Z,63.70
2018-01-01T04:24:14.699Z,63.70
2018-01-01T04:25:19.505Z,63.70
2018-01-01T04:26:24.370Z,63.70
2018-01-01T04:27:29.278Z,63.60
2018-01-01T04:28:33.995Z,63.60
2018-01-01T04:29:39.140Z,63.70
2018-01-01T04:30:43.962Z,63.60
2018-01-01T04:31:48.881Z,63.60
2018-01-01T04:32:53.888Z,63.60
2018-01-01T04:33:58.667Z,63.60
2018-01-01T04:35:03.511Z,63.60
2018-01-01T04:36:08.430Z,63.60
2018-01-01T04:37:13.199Z,63.60
2018-01-01T04:38:18.151Z,63.50
2018-01-01T04:39:22.929Z,63.50
2018-01-01T04:40:27.850Z,63.50
2018-01-01T04:41:32.585Z,63.60
2018-01-01T04:42:37.477Z,63.50
2018-01-01T04:43:42.331Z,63.50
2018-01-01T04:44:47.162Z,63.50
2018-01-01T04:45:51.924Z,63.50
2018-01-01T04:46:56.636Z,63.50
2018-01-01T04:48:01.564Z,63.50
2018-01-01T04:49:07.494Z,63.40
2018-01-01T04:50:12.386Z,64.10
2018-01-01T04:51:17.199Z,63.40
2018-01-01T04:52:22.000Z,63.40
2018-01-01T04:53:26.988Z,63.40
2018-01-01T04:54:31.996Z,64.10
2018-01-01T04:55:36.981Z,63.40
2018-01-01T04:56:42.001Z,63.40
2018-01-01T04:57:46.841Z,63.40
2018-01-01T04:58:51.661Z,63.40
2018-01-01T04:59:56.543Z,63.40
2018-01-01T05:01:01.420Z,63.40
2018-01-01T05:02:06.455Z,64.00
2018-01-01T05:03:11.216Z,63.30
2018-01-01T05:04:16.159Z,63.20
2018-01-01T05:05:21.086Z,63.30
2018-01-01T05:06:26.014Z,63.30
2018-01-01T05:07:30.805Z,63.20
2018-01-01T05:08:35.510Z,63.20
2018-01-01T05:09:40.302Z,63.20
2018-01-01T05:10:45.157Z,63.10
2018-01-01T05:11:50.082Z,63.10
2018-01-01T05:12:54.895Z,63.10
2018-01-01T05:13:59.790Z,63.10
2018-01-01T05:15:04.636Z,63.10
2018-01-01T05:16:09.426Z,63.00
2018-01-01T05:17:14.392Z,63.00
2018-01-01T05:18:19.182Z,63.00
2018-01-01T05:19:24.191Z,63.10
2018-01-01T05:20:28.958Z,63.00
2018-01-01T05:21:33.742Z,63.00
2018-01-01T05:22:38.492Z,63.10
2018-01-01T05:23:43.373Z,63.10
2018-01-01T05:24:48.190Z,63.00
2018-01-01T05:25:53.063Z,63.10
2018-01-01T05:26:57.942Z,63.00
2018-01-01T05:28:02.954Z,63.00
2018-01-01T05:29:07.933Z,63.00
2018-01-01T05:30:12.728Z,63.00
2018-01-01T05:31:17.604Z,63.00
2018-01-01T05:32:22.470Z,63.00
2018-01-01T05:33:27.274Z,63.00
2018-01-01T05:34:32.004Z,63.00
2018-01-01T05:35:36.876Z,63.00
2018-01-01T05:36:41.840Z,63.00
2018-01-01T05:37:46.783Z,63.00
2018-01-01T05:38:51.574Z,63.00
2018-01-01T05:39:56.353Z,63.00
2018-01-01T05:41:01.305Z,63.00
2018-01-01T05:42:06.262Z,63.00
2018-01-01T05:43:11.148Z,63.00
2018-01-01T05:44:16.014Z,63.00
2018-01-01T05:45:20.939Z,63.00
2018-01-01T05:46:25.801Z,63.00
2018-01-01T05:47:30.777Z,63.00
2018-01-01T05:48:35.706Z,63.00
2018-01-01T05:49:40.597Z,63.00
2018-01-01T05:50:45.513Z,63.00
2018-01-01T05:51:50.375Z,63.00
2018-01-01T05:52:55.114Z,63.00
2018-01-01T05:53:59.983Z,63.00
2018-01-01T05:55:04.951Z,63.00
2018-01-01T05:56:09.904Z,63.00
2018-01-01T05:57:14.691Z,63.00
2018-01-01T05:58:19.681Z,62.90
2018-01-01T05:59:24.670Z,63.00
2018-01-01T06:00:29.564Z,62.90
2018-01-01T06:01:34.429Z,62.90
2018-01-01T06:02:39.273Z,62.90
2018-01-01T06:03:44.195Z,62.90
2018-01-01T06:04:49.118Z,63.10
2018-01-01T06:05:53.906Z,62.90
2018-01-01T06:06:58.710Z,63.00
2018-01-01T06:08:03.484Z,62.90
2018-01-01T06:09:08.376Z,62.90
2018-01-01T06:10:13.202Z,62.90
2018-01-01T06:11:18.074Z,62.90
2018-01-01T06:12:22.967Z,62.90
2018-01-01T06:13:27.837Z,62.70
2018-01-01T06:14:32.767Z,62.80
2018-01-01T06:15:37.560Z,62.90
2018-01-01T06:16:42.328Z,62.80
2018-01-01T06:17:47.065Z,62.80
2018-01-01T06:18:51.806Z,62.80
2018-01-01T06:19:56.738Z,62.80
2018-01-01T06:21:01.738Z,62.80
2018-01-01T06:22:06.478Z,62.80
2018-01-01T06:23:11.315Z,62.80
2018-01-01T06:24:16.179Z,62.80
2018-01-01T06:25:20.928Z,62.80
2018-01-01T06:26:25.725Z,62.80
2018-01-01T06:27:30.792Z,62.80
2018-01-01T06:28:35.734Z,62.70
2018-01-01T06:29:40.593Z,62.80
2018-01-01T06:30:45.467Z,63.40
2018-01-01T06:31:50.204Z,62.80
2018-01-01T06:32:55.145Z,62.70
2018-01-01T06:33:59.968Z,62.70
2018-01-01T06:35:04.815Z,62.70
2018-01-01T06:36:09.826Z,62.60
2018-01-01T06:37:14.688Z,62.70
2018-01-01T06:38:19.462Z,62.70
2018-01-01T06:39:24.190Z,62.60
2018-01-01T06:40:28.933Z,62.80
2018-01-01T06:41:33.785Z,62.60
2018-01-01T06:42:38.555Z,62.60
2018-01-01T06:43:43.299Z,62.70
2018-01-01T06:44:48.224Z,62.60
2018-01-01T06:45:53.242Z,62.60
2018-01-01T06:46:58.095Z,62.60
2018-01-01T06:48:02.851Z,62.60
2018-01-01T06:49:07.742Z,62.60
2018-01-01T06:50:12.654Z,62.60
2018-01-01T06:51:17.453Z,62.60
2018-01-01T06:52:22.348Z,62.50
2018-01-01T06:53:27.144Z,62.50
2018-01-01T06:54:31.905Z,62.50
2018-01-01T06:55:36.762Z,62.60
2018-01-01T06:56:41.543Z,62.60
2018-01-01T06:57:46.428Z,62.50
2018-01-01T06:58:51.299Z,62.50
2018-01-01T06:59:56.047Z,62.50
2018-01-01T07:01:00.865Z,62.50
2018-01-01T07:02:05.806Z,62.50
2018-01-01T07:03:10.759Z,62.50
2018-01-01T07:04:15.585Z,62.50
2018-01-01T07:05:20.415Z,62.40
2018-01-01T07:06:25.304Z,62.50
2018-01-01T07:07:30.267Z,62.50
2018-01-01T07:08:34.997Z,62.40
2018-01-01T07:09:39.915Z,62.40
2018-01-01T07:10:44.688Z,62.50
2018-01-01T07:11:49.454Z,62.40
2018-01-01T07:12:54.215Z,62.30
2018-01-01T07:13:59.105Z,62.40
2018-01-01T07:15:04.072Z,62.30
2018-01-01T07:16:08.953Z,62.30
2018-01-01T07:17:13.691Z,62.30
2018-01-01T07:18:18.582Z,62.40
2018-01-01T07:19:23.374Z,62.30
2018-01-01T07:20:28.120Z,62.30
2018-01-01T07:21:32.961Z,62.40
2018-01-01T07:22:37.883Z,62.30
2018-01-01T07:23:42.791Z,62.30
2018-01-01T07:24:47.595Z,62.30
2018-01-01T07:25:52.467Z,62.30
2018-01-01T07:26:57.180Z,62.40
2018-01-01T07:28:01.952Z,62.30
2018-01-01T07:29:18.662Z,62.40
2018-01-01T07:30:23.523Z,62.30
2018-01-01T07:31:28.233Z,62.30
2018-01-01T07:32:33.143Z,62.30
2018-01-01T07:33:38.307Z,62.30
2018-01-01T07:34:43.059Z,62.30
2018-01-01T07:35:47.808Z,62.30
2018-01-01T07:36:52.815Z,62.30
2018-01-01T07:37:57.595Z,62.40
2018-01-01T07:39:02.461Z,62.30
2018-01-01T07:40:07.254Z,62.30
2018-01-01T07:41:12.151Z,62.40
2018-01-01T07:42:17.023Z,62.30
2018-01-01T07:43:21.895Z,62.30
2018-01-01T07:44:26.775Z,62.30
2018-01-01T07:45:31.534Z,62.30
2018-01-01T07:46:36.312Z,62.30
2018-01-01T07:47:41.070Z,62.30
2018-01-01T07:48:45.993Z,62.30
2018-01-01T07:49:50.701Z,62.30
2018-01-01T07:50:55.514Z,62.30
2018-01-01T07:52:00.357Z,62.20
2018-01-01T07:53:05.265Z,62.30
2018-01-01T07:54:10.186Z,62.20
2018-01-01T07:55:15.058Z,62.20
2018-01-01T07:56:19.965Z,62.20
2018-01-01T07:57:24.756Z,62.40
2018-01-01T07:58:29.650Z,62.30
2018-01-01T07:59:34.446Z,62.30
2018-01-01T08:00:39.276Z,62.30
2018-01-01T08:01:44.021Z,62.30
2018-01-01T08:02:48.914Z,62.20
2018-01-01T08:03:53.827Z,62.20
2018-01-01T08:04:58.671Z,62.20
2018-01-01T08:06:03.588Z,62.20
2018-01-01T08:07:08.298Z,62.20
2018-01-01T08:08:13.227Z,62.20
2018-01-01T08:09:18.133Z,62.20
2018-01-01T08:10:23.028Z,62.10
2018-01-01T08:11:27.936Z,62.10
2018-01-01T08:12:32.702Z,62.10
2018-01-01T08:13:37.420Z,62.10
2018-01-01T08:14:42.297Z,62.10
2018-01-01T08:15:47.179Z,62.10
2018-01-01T08:16:51.958Z,62.10
2018-01-01T08:17:56.920Z,62.10
2018-01-01T08:19:01.847Z,62.20
2018-01-01T08:20:06.810Z,62.20
2018-01-01T08:21:11.529Z,62.10
2018-01-01T08:22:16.267Z,62.10
2018-01-01T08:23:21.145Z,62.10
2018-01-01T08:24:26.065Z,62.10
2018-01-01T08:25:30.841Z,62.10
2018-01-01T08:26:35.711Z,62.10
2018-01-01T08:27:40.456Z,62.10
2018-01-01T08:28:45.259Z,62.10
2018-01-01T08:29:50.156Z,62.10
2018-01-01T08:30:55.041Z,62.10
2018-01-01T08:31:59.939Z,62.10
2018-01-01T08:33:04.877Z,62.10
2018-01-01T08:34:09.838Z,62.10
2018-01-01T08:35:14.756Z,62.10
2018-01-01T08:36:19.585Z,62.20
2018-01-01T08:37:24.417Z,62.10
2018-01-01T08:38:29.205Z,62.10
2018-01-01T08:39:34.077Z,62.10
2018-01-01T08:40:38.995Z,62.10
2018-01-01T08:41:43.907Z,62.00
2018-01-01T08:42:49.324Z,62.10
2018-01-01T08:43:54.079Z,62.10
2018-01-01T08:44:58.978Z,62.10
2018-01-01T08:46:03.770Z,62.00
2018-01-01T08:47:08.526Z,62.00
2018-01-01T08:48:13.367Z,62.00
2018-01-01T08:49:18.325Z,62.00
2018-01-01T08:50:23.154Z,62.00
2018-01-01T08:51:28.065Z,62.10
2018-01-01T08:52:32.891Z,62.00
2018-01-01T08:53:37.678Z,62.00
2018-01-01T08:54:42.720Z,62.10
2018-01-01T08:55:47.416Z,62.00
2018-01-01T08:56:52.245Z,62.00
2018-01-01T08:57:57.033Z,62.00
2018-01-01T08:59:01.946Z,62.00
2018-01-01T09:00:07.154Z,62.00
2018-01-01T09:01:12.036Z,62.00
2018-01-01T09:02:16.801Z,62.00
2018-01-01T09:03:21.579Z,62.00
2018-01-01T09:04:26.368Z,62.00
2018-01-01T09:05:31.112Z,62.20
2018-01-01T09:06:35.845Z,62.00
2018-01-01T09:07:40.611Z,62.00
2018-01-01T09:08:45.546Z,62.00
2018-01-01T09:09:50.460Z,62.00
2018-01-01T09:10:55.242Z,62.00
2018-01-01T09:12:00.025Z,62.00
2018-01-01T09:13:05.089Z,62.00
2018-01-01T09:14:09.955Z,62.00
2018-01-01T09:15:14.904Z,62.00
2018-01-01T09:16:19.828Z,62.00
2018-01-01T09:17:24.726Z,62.00
2018-01-01T09:18:29.632Z,61.90
2018-01-01T09:19:34.431Z,62.00
2018-01-01T09:20:39.195Z,62.00
2018-01-01T09:21:44.153Z,61.90
2018-01-01T09:22:48.993Z,62.00
2018-01-01T09:23:53.716Z,62.00
2018-01-01T09:24:58.672Z,62.00
2018-01-01T09:26:03.507Z,62.00
2018-01-01T09:27:08.329Z,62.00
2018-01-01T09:28:13.018Z,62.00
2018-01-01T09:29:17.742Z,62.00
2018-01-01T09:30:22.480Z,62.00
2018-01-01T09:31:27.427Z,62.00
2018-01-01T09:32:32.346Z,61.90
2018-01-01T09:33:37.270Z,62.00
2018-01-01T09:34:42.194Z,61.90
2018-01-01T09:35:47.022Z,61.90
2018-01-01T09:36:51.991Z,61.90
2018-01-01T09:37:56.865Z,62.00
2018-01-01T09:39:01.795Z,62.00
2018-01-01T09:40:06.694Z,62.00
2018-01-01T09:41:11.641Z,62.10
2018-01-01T09:42:16.491Z,62.00
2018-01-01T09:43:21.398Z,62.00
2018-01-01T09:44:26.794Z,62.00
2018-01-01T09:45:31.699Z,62.00
2018-01-01T09:46:36.619Z,62.10
2018-01-01T09:47:41.593Z,62.00
2018-01-01T09:48:46.552Z,62.00
2018-01-01T09:49:51.458Z,62.00
2018-01-01T09:50:56.451Z,62.00
2018-01-01T09:52:01.373Z,62.00
2018-01-01T09:53:06.302Z,61.90
2018-01-01T09:54:11.085Z,61.90
2018-01-01T09:55:15.904Z,61.90
2018-01-01T09:56:20.876Z,61.90
2018-01-01T09:57:25.615Z,62.00
2018-01-01T09:58:30.383Z,61.90
2018-01-01T09:59:35.340Z,61.90
2018-01-01T10:00:40.304Z,61.90
2018-01-01T10:01:45.216Z,61.90
2018-01-01T10:02:50.082Z,61.80
2018-01-01T10:03:54.848Z,62.00
2018-01-01T10:05:02.071Z,61.90
2018-01-01T10:06:07.096Z,61.80
2018-01-01T10:07:11.994Z,61.90
2018-01-01T10:08:17.066Z,61.80
2018-01-01T10:09:21.836Z,61.80
2018-01-01T10:10:26.770Z,61.90
2018-01-01T10:11:31.785Z,61.80
2018-01-01T10:12:36.836Z,61.80
2018-01-01T10:13:41.767Z,61.90
2018-01-01T10:14:46.569Z,61.80
2018-01-01T10:15:51.335Z,61.80
2018-01-01T10:16:56.330Z,61.80
2018-01-01T10:18:01.288Z,61.80
2018-01-01T10:19:06.248Z,61.80
2018-01-01T10:20:11.166Z,61.80
2018-01-01T10:21:15.999Z,61.80
2018-01-01T10:22:20.866Z,61.80
2018-01-01T10:23:25.844Z,61.70
2018-01-01T10:24:30.776Z,61.70
2018-01-01T10:25:36.558Z,61.80
2018-01-01T10:26:42.499Z,61.80
2018-01-01T10:27:47.456Z,61.70
2018-01-01T10:28:52.311Z,61.70
2018-01-01T10:29:57.274Z,61.70
2018-01-01T10:31:02.401Z,61.70
2018-01-01T10:32:07.738Z,61.70
2018-01-01T10:33:12.553Z,61.80
2018-01-01T10:34:17.630Z,61.80
2018-01-01T10:35:22.574Z,61.80
2018-01-01T10:36:27.661Z,61.80
2018-01-01T10:37:32.633Z,61.80
2018-01-01T10:38:37.671Z,61.80
2018-01-01T10:39:42.645Z,61.80
2018-01-01T10:40:47.620Z,61.80
2018-01-01T10:41:52.576Z,61.80
2018-01-01T10:42:57.571Z,61.70
2018-01-01T10:44:02.414Z,61.70
2018-01-01T10:45:07.539Z,61.80
2018-01-01T10:46:12.555Z,61.70
2018-01-01T10:47:17.583Z,61.70
2018-01-01T10:48:22.551Z,61.70
2018-01-01T10:49:27.456Z,61.70
2018-01-01T10:50:32.401Z,61.70
2018-01-01T10:51:37.340Z,61.70
2018-01-01T10:52:42.152Z,61.70
2018-01-01T10:53:47.115Z,61.60
2018-01-01T10:54:51.982Z,61.70
2018-01-01T10:55:56.966Z,61.70
2018-01-01T10:57:01.921Z,61.60
2018-01-01T10:58:06.963Z,61.60
2018-01-01T10:59:11.754Z,61.60
2018-01-01T11:00:16.702Z,61.60
2018-01-01T11:01:21.593Z,61.70
2018-01-01T11:02:26.347Z,61.70
2018-01-01T11:03:31.485Z,61.70
2018-01-01T11:04:36.385Z,61.70
2018-01-01T11:05:41.210Z,61.70
2018-01-01T11:06:46.066Z,61.70
2018-01-01T11:07:50.800Z,61.70
2018-01-01T11:08:55.635Z,61.70
2018-01-01T11:10:00.608Z,61.80
2018-01-01T11:11:05.540Z,61.60
2018-01-01T11:12:10.340Z,61.70
2018-01-01T11:13:15.188Z,61.70
2018-01-01T11:14:19.950Z,61.70
2018-01-01T11:15:24.726Z,61.60
2018-01-01T11:16:29.684Z,61.70
2018-01-01T11:17:34.572Z,61.60
2018-01-01T11:18:39.474Z,61.70
2018-01-01T11:19:44.529Z,61.60
2018-01-01T11:20:49.370Z,61.70
2018-01-01T11:21:54.563Z,61.70
2018-01-01T11:22:59.655Z,61.70
2018-01-01T11:24:04.580Z,61.60
2018-01-01T11:25:09.481Z,61.70
2018-01-01T11:26:14.264Z,61.70
2018-01-01T11:27:18.973Z,61.70
2018-01-01T11:28:23.783Z,61.70
2018-01-01T11:29:28.666Z,61.60
2018-01-01T11:30:33.445Z,61.60
2018-01-01T11:31:38.353Z,61.60
2018-01-01T11:32:43.543Z,61.60
2018-01-01T11:33:48.644Z,61.60
2018-01-01T11:34:53.345Z,61.60
2018-01-01T11:35:58.665Z,61.60
2018-01-01T11:37:03.604Z,61.70
2018-01-01T11:38:08.377Z,61.60
2018-01-01T11:39:13.260Z,61.60
2018-01-01T11:40:18.473Z,61.60
2018-01-01T11:41:23.200Z,61.60
2018-01-01T11:42:28.117Z,61.60
2018-01-01T11:43:33.169Z,61.50
2018-01-01T11:44:37.979Z,61.60
2018-01-01T11:45:42.929Z,61.50
2018-01-01T11:46:47.842Z,61.60
2018-01-01T11:47:52.672Z,61.50
2018-01-01T11:48:57.675Z,61.60
2018-01-01T11:50:02.460Z,61.60
2018-01-01T11:51:07.421Z,61.60
2018-01-01T11:52:12.326Z,61.60
2018-01-01T11:53:17.134Z,61.60
2018-01-01T11:54:23.038Z,61.50
2018-01-01T11:55:27.971Z,61.50
2018-01-01T11:56:32.869Z,61.50
2018-01-01T11:57:37.793Z,61.50
2018-01-01T11:58:42.572Z,61.50
2018-01-01T11:59:47.379Z,61.50
2018-01-01T12:00:52.324Z,61.50
2018-01-01T12:01:57.237Z,61.50
2018-01-01T12:03:01.987Z,61.50
2018-01-01T12:04:06.790Z,61.50
2018-01-01T12:05:11.834Z,61.50
2018-01-01T12:06:16.802Z,61.50
2018-01-01T12:07:21.837Z,61.50
2018-01-01T12:08:26.594Z,61.60
2018-01-01T12:09:31.517Z,61.60
2018-01-01T12:10:36.216Z,61.50
2018-01-01T12:11:41.059Z,61.60
2018-01-01T12:12:45.785Z,61.60
2018-01-01T12:13:50.529Z,61.60
2018-01-01T12:14:55.293Z,61.60
2018-01-01T12:16:00.046Z,61.60
2018-01-01T12:17:05.010Z,61.60
2018-01-01T12:18:09.822Z,61.60
2018-01-01T12:19:14.937Z,61.60
2018-01-01T12:20:19.947Z,61.60
2018-01-01T12:21:24.834Z,61.60
2018-01-01T12:22:29.970Z,61.60
2018-01-01T12:23:35.016Z,61.60
2018-01-01T12:24:40.149Z,61.60
2018-01-01T12:25:45.265Z,61.50
2018-01-01T12:26:50.115Z,61.50
2018-01-01T12:27:55.096Z,61.60
2018-01-01T12:29:00.415Z,61.50
2018-01-01T12:30:05.461Z,61.50
2018-01-01T12:31:10.376Z,61.40
2018-01-01T12:32:15.457Z,61.40
2018-01-01T12:33:20.454Z,61.40
2018-01-01T12:34:25.603Z,61.40
2018-01-01T12:35:30.460Z,61.60
2018-01-01T12:36:35.573Z,61.50
2018-01-01T12:37:40.667Z,61.40
2018-01-01T12:38:45.862Z,61.40
2018-01-01T12:39:50.769Z,61.40
2018-01-01T12:40:55.928Z,61.30
2018-01-01T12:42:00.884Z,62.00
2018-01-01T12:43:05.831Z,61.30
2018-01-01T12:44:10.802Z,61.30
2018-01-01T12:45:15.725Z,61.30
2018-01-01T12:46:20.738Z,61.30
2018-01-01T12:47:25.904Z,61.30
2018-01-01T12:48:30.773Z,61.30
2018-01-01T12:49:35.745Z,61.20
2018-01-01T12:50:40.940Z,61.20
2018-01-01T12:51:46.301Z,61.20
2018-01-01T12:52:51.425Z,61.20
2018-01-01T12:53:56.575Z,61.30
2018-01-01T12:55:01.572Z,61.30
2018-01-01T12:56:06.569Z,61.30
2018-01-01T12:57:11.661Z,61.30
2018-01-01T12:58:16.698Z,61.20
2018-01-01T12:59:21.695Z,61.30
2018-01-01T13:00:26.712Z,61.30
2018-01-01T13:01:31.580Z,61.30
2018-01-01T13:02:36.386Z,61.30
2018-01-01T13:03:41.256Z,61.30
2018-01-01T13:04:46.134Z,61.30
2018-01-01T13:05:51.091Z,61.30
2018-01-01T13:06:56.463Z,61.30
2018-01-01T13:08:01.541Z,61.40
2018-01-01T13:09:06.676Z,61.40
2018-01-01T13:10:11.691Z,61.40
2018-01-01T13:11:16.723Z,61.30
2018-01-01T13:12:21.543Z,61.30
2018-01-01T13:13:26.502Z,61.30
2018-01-01T13:14:31.339Z,61.30
2018-01-01T13:15:36.317Z,61.30
2018-01-01T13:16:41.258Z,61.30
2018-01-01T13:17:46.362Z,61.30
2018-01-01T13:18:51.345Z,61.30
2018-01-01T13:19:56.343Z,61.30
2018-01-01T13:21:01.362Z,61.40
2018-01-01T13:22:06.287Z,61.40
2018-01-01T13:23:11.184Z,61.30
2018-01-01T13:24:16.012Z,61.30
2018-01-01T13:25:20.837Z,61.30
2018-01-01T13:26:25.629Z,61.30
2018-01-01T13:27:30.542Z,61.30
2018-01-01T13:28:35.479Z,61.30
2018-01-01T13:29:40.427Z,61.30
2018-01-01T13:30:45.379Z,61.30
2018-01-01T13:31:50.511Z,61.30
2018-01-01T13:32:58.217Z,61.30
2018-01-01T13:34:03.231Z,61.20
2018-01-01T13:35:08.019Z,61.30
2018-01-01T13:36:12.868Z,61.30
2018-01-01T13:37:17.784Z,61.30
2018-01-01T13:38:22.583Z,61.30
2018-01-01T13:39:27.552Z,61.30
2018-01-01T13:40:32.496Z,61.30
2018-01-01T13:41:37.396Z,61.30
2018-01-01T13:42:42.359Z,61.30
2018-01-01T13:43:47.509Z,61.30
2018-01-01T13:44:52.477Z,61.30
2018-01-01T13:45:57.337Z,61.30
2018-01-01T13:47:02.205Z,61.30
2018-01-01T13:48:07.212Z,61.30
2018-01-01T13:49:12.117Z,61.30
2018-01-01T13:50:17.117Z,61.30
2018-01-01T13:51:22.013Z,61.30
2018-01-01T13:52:26.814Z,61.30
2018-01-01T13:53:31.735Z,61.30
2018-01-01T13:54:36.604Z,61.30
2018-01-01T13:55:41.601Z,61.30